createdAt,value
2023-05-18T00:02:17.405Z,9.10
2023-05-18T00:04:50.748Z,9.10
2023-05-18T00:07:24.034Z,9.10
2023-05-18T00:09:57.132Z,9.00
2023-05-18T00:12:30.349Z,9.00
2023-05-18T00:15:03.580Z,8.98
2023-05-18T00:17:36.739Z,8.90
2023-05-18T00:20:11.329Z,8.90
2023-05-18T00:22:44.521Z,8.90
2023-05-18T00:25:17.593Z,8.80
2023-05-18T00:27:52.192Z,8.80
2023-05-18T00:30:25.882Z,8.80
2023-05-18T00:32:59.103Z,8.70
2023-05-18T00:35:32.402Z,8.70
2023-05-18T00:38:05.732Z,8.70
2023-05-18T00:40:38.827Z,8.60
2023-05-18T00:43:12.044Z,8.60
2023-05-18T00:45:45.437Z,8.56
2023-05-18T00:48:18.807Z,8.50
2023-05-18T00:50:52.110Z,8.50
2023-05-18T00:53:25.300Z,8.40
2023-05-18T00:55:58.483Z,8.40
2023-05-18T00:58:32.696Z,8.40
2023-05-18T01:01:06.352Z,8.34
2023-05-18T01:03:39.676Z,8.30
2023-05-18T01:06:15.015Z,8.30
2023-05-18T01:08:48.766Z,8.30
2023-05-18T01:11:31.377Z,8.30
2023-05-18T01:14:15.541Z,8.30
2023-05-18T01:16:56.155Z,8.30
2023-05-18T01:20:01.664Z,8.20
2023-05-18T01:23:01.762Z,8.20
2023-05-18T01:25:53.833Z,8.20
2023-05-18T01:28:35.406Z,8.20
2023-05-18T01:31:10.070Z,8.20
2023-05-18T01:33:43.145Z,8.20
2023-05-18T01:36:16.785Z,8.20
2023-05-18T01:38:50.279Z,8.20
2023-05-18T01:41:27.295Z,8.20
2023-05-18T01:44:13.119Z,8.20
2023-05-18T01:47:11.030Z,8.20
2023-05-18T01:49:49.505Z,8.10
2023-05-18T01:52:26.108Z,8.10
2023-05-18T01:55:03.277Z,8.10
2023-05-18T01:57:41.065Z,8.06
2023-05-18T02:00:17.754Z,8.00
2023-05-18T02:02:51.765Z,8.00
2023-05-18T02:05:25.167Z,8.00
2023-05-18T02:07:59.086Z,8.00
2023-05-18T02:10:32.111Z,7.90
2023-05-18T02:13:05.250Z,7.90
2023-05-18T02:15:38.484Z,7.90
2023-05-18T02:18:11.812Z,7.90
2023-05-18T02:20:45.169Z,7.90
2023-05-18T02:23:18.496Z,7.90
2023-05-18T02:25:51.653Z,7.90
2023-05-18T02:28:25.073Z,7.90
2023-05-18T02:31:05.670Z,7.90
2023-05-18T02:33:40.303Z,7.90
2023-05-18T02:36:18.867Z,7.90
2023-05-18T02:38:52.059Z,7.92
2023-05-18T02:41:26.046Z,7.90
2023-05-18T02:43:59.247Z,7.96
2023-05-18T02:46:33.243Z,7.98
2023-05-18T02:49:06.653Z,8.00
2023-05-18T02:51:39.891Z,8.00
2023-05-18T02:54:13.345Z,8.00
2023-05-18T02:56:47.446Z,8.00
2023-05-18T02:59:44.050Z,8.00
2023-05-18T03:02:17.249Z,8.00
2023-05-18T03:04:54.252Z,8.08
2023-05-18T03:07:28.030Z,8.10
2023-05-18T03:10:05.733Z,8.10
2023-05-18T03:12:38.916Z,8.20
2023-05-18T03:15:16.371Z,8.20
2023-05-18T03:17:49.965Z,8.20
2023-05-18T03:20:23.769Z,8.16
2023-05-18T03:22:57.248Z,8.10
2023-05-18T03:25:33.019Z,8.06
2023-05-18T03:28:08.166Z,8.00
2023-05-18T03:30:41.760Z,7.94
2023-05-18T03:33:15.010Z,7.90
2023-05-18T03:35:48.740Z,7.90
2023-05-18T03:38:22.230Z,7.90
2023-05-18T03:41:01.121Z,7.90
2023-05-18T03:43:36.690Z,7.90
2023-05-18T03:46:09.875Z,7.90
2023-05-18T03:48:43.330Z,8.00
2023-05-18T03:51:16.594Z,8.00
2023-05-18T03:53:49.819Z,8.02
2023-05-18T03:56:23.385Z,8.10
2023-05-18T03:58:58.703Z,8.10
2023-05-18T04:01:33.344Z,8.12
2023-05-18T04:04:07.554Z,8.20
2023-05-18T04:06:40.930Z,8.28
2023-05-18T04:09:17.494Z,8.30
2023-05-18T04:11:50.748Z,8.30
2023-05-18T04:14:24.927Z,8.40
2023-05-18T04:16:58.493Z,8.40
2023-05-18T04:19:31.929Z,8.48
2023-05-18T04:22:05.740Z,8.50
2023-05-18T04:24:41.483Z,8.56
2023-05-18T04:27:16.290Z,8.60
2023-05-18T04:29:50.031Z,8.62
2023-05-18T04:32:28.717Z,8.70
2023-05-18T04:35:02.176Z,8.70
2023-05-18T04:37:35.911Z,8.70
2023-05-18T04:40:14.205Z,8.80
2023-05-18T04:42:48.703Z,8.80
2023-05-18T04:45:34.623Z,8.90
2023-05-18T04:48:08.176Z,8.90
2023-05-18T04:50:42.238Z,9.00
2023-05-18T04:53:18.324Z,9.00
2023-05-18T04:55:53.513Z,9.10
2023-05-18T04:58:29.820Z,9.10
2023-05-18T05:01:03.542Z,9.10
2023-05-18T05:03:36.970Z,9.20
2023-05-18T05:06:11.700Z,9.30
2023-05-18T05:08:44.645Z,9.40
2023-05-18T05:11:17.835Z,9.50
2023-05-18T05:13:50.948Z,9.50
2023-05-18T05:16:24.110Z,9.60
2023-05-18T05:18:57.097Z,9.70
2023-05-18T05:21:30.166Z,9.80
2023-05-18T05:24:05.234Z,9.84
2023-05-18T05:26:38.671Z,9.90
2023-05-18T05:29:14.429Z,9.90
2023-05-18T05:31:47.608Z,10.00
2023-05-18T05:34:20.657Z,10.10
2023-05-18T05:36:54.336Z,10.28
2023-05-18T05:39:27.328Z,10.34
2023-05-18T05:42:01.042Z,10.50
2023-05-18T05:44:34.129Z,10.66
2023-05-18T05:47:07.796Z,10.80
2023-05-18T05:49:41.007Z,10.90
2023-05-18T05:52:14.184Z,11.14
2023-05-18T05:54:47.434Z,11.32
2023-05-18T05:57:21.281Z,11.50
2023-05-18T05:59:54.435Z,11.50
2023-05-18T06:02:27.914Z,11.60
2023-05-18T06:05:01.491Z,11.70
2023-05-18T06:07:34.751Z,11.80
2023-05-18T06:10:08.749Z,11.80
2023-05-18T06:12:42.571Z,11.80
2023-05-18T06:15:16.295Z,11.90
2023-05-18T06:17:49.320Z,12.00
2023-05-18T06:20:23.395Z,12.00
2023-05-18T06:22:57.453Z,12.02
2023-05-18T06:25:44.968Z,12.10
2023-05-18T06:28:31.738Z,12.10
2023-05-18T06:31:35.118Z,12.10
2023-05-18T06:34:26.432Z,12.02
2023-05-18T06:37:00.280Z,12.10
2023-05-18T06:39:33.418Z,12.10
2023-05-18T06:42:07.374Z,12.10
2023-05-18T06:44:40.640Z,12.10
2023-05-18T06:47:16.633Z,12.10
2023-05-18T06:49:50.313Z,12.20
2023-05-18T06:52:26.996Z,12.26
2023-05-18T06:55:01.492Z,12.32
2023-05-18T06:57:35.274Z,12.40
2023-05-18T07:00:12.609Z,12.50
2023-05-18T07:02:46.034Z,12.62
2023-05-18T07:05:19.524Z,12.84
2023-05-18T07:07:52.661Z,13.00
2023-05-18T07:10:26.403Z,13.20
2023-05-18T07:12:59.770Z,13.50
2023-05-18T07:15:33.306Z,13.70
2023-05-18T07:18:06.885Z,13.82
2023-05-18T07:20:40.055Z,14.00
2023-05-18T07:23:13.148Z,14.10
2023-05-18T07:25:47.018Z,14.32
2023-05-18T07:28:20.213Z,14.40
2023-05-18T07:30:53.512Z,14.40
2023-05-18T07:33:26.677Z,14.60
2023-05-18T07:35:59.838Z,14.70
2023-05-18T07:38:33.203Z,14.92
2023-05-18T07:41:06.194Z,15.24
2023-05-18T07:43:39.248Z,15.40
2023-05-18T07:46:12.823Z,15.50
2023-05-18T07:48:46.470Z,15.50
2023-05-18T07:51:19.469Z,15.70
2023-05-18T07:53:52.768Z,15.80
2023-05-18T07:56:26.148Z,15.82
2023-05-18T07:58:59.191Z,16.00
2023-05-18T08:01:32.372Z,16.20
2023-05-18T08:04:05.906Z,16.30
2023-05-18T08:06:39.180Z,16.48
2023-05-18T08:09:12.621Z,16.50
2023-05-18T08:11:46.374Z,16.58
2023-05-18T08:14:19.403Z,16.80
2023-05-18T08:16:52.815Z,17.10
2023-05-18T08:19:27.302Z,17.32
2023-05-18T08:22:00.603Z,17.50
2023-05-18T08:24:34.022Z,17.80
2023-05-18T08:27:10.084Z,18.10
2023-05-18T08:29:43.309Z,18.30
2023-05-18T08:32:17.001Z,18.30
2023-05-18T08:34:51.671Z,18.40
2023-05-18T08:37:29.436Z,18.50
2023-05-18T08:40:03.448Z,18.70
2023-05-18T08:42:50.486Z,18.80
2023-05-18T08:45:34.041Z,18.72
2023-05-18T08:48:09.263Z,18.62
2023-05-18T08:50:45.872Z,18.50
2023-05-18T08:53:20.037Z,18.50
2023-05-18T08:55:55.438Z,18.50
2023-05-18T08:58:36.953Z,18.50
2023-05-18T09:01:10.276Z,18.70
2023-05-18T09:03:44.035Z,18.68
2023-05-18T09:06:17.563Z,18.60
2023-05-18T09:08:52.880Z,18.70
2023-05-18T09:11:28.535Z,18.50
2023-05-18T09:14:02.247Z,18.30
2023-05-18T09:16:35.958Z,18.30
2023-05-18T09:19:10.191Z,18.50
2023-05-18T09:21:43.318Z,18.74
2023-05-18T09:24:16.508Z,18.84
2023-05-18T09:26:50.228Z,18.86
2023-05-18T09:29:25.267Z,19.00
2023-05-18T09:31:58.487Z,19.16
2023-05-18T09:34:43.270Z,19.46
2023-05-18T09:37:19.310Z,19.40
2023-05-18T09:40:01.952Z,19.46
2023-05-18T09:42:42.509Z,19.40
2023-05-18T09:45:24.026Z,19.34
2023-05-18T09:47:57.733Z,19.26
2023-05-18T09:50:31.023Z,19.42
2023-05-18T09:53:05.163Z,19.80
2023-05-18T09:55:45.811Z,19.88
2023-05-18T09:58:18.874Z,20.24
2023-05-18T10:00:57.140Z,20.70
2023-05-18T10:03:37.036Z,20.80
2023-05-18T10:06:13.492Z,20.60
2023-05-18T10:08:47.050Z,20.56
2023-05-18T10:11:22.008Z,21.12
2023-05-18T10:14:00.162Z,21.90
2023-05-18T10:16:33.315Z,22.64
2023-05-18T10:19:10.350Z,23.00
2023-05-18T10:21:45.208Z,23.12
2023-05-18T10:24:22.260Z,23.40
2023-05-18T10:26:58.925Z,23.92
2023-05-18T10:29:33.842Z,24.40
2023-05-18T10:32:08.642Z,24.82
2023-05-18T10:34:44.840Z,25.12
2023-05-18T10:37:20.792Z,25.50
2023-05-18T10:39:56.186Z,25.54
2023-05-18T10:42:31.198Z,25.74
2023-05-18T10:45:04.306Z,25.90
2023-05-18T10:47:40.597Z,25.98
2023-05-18T10:50:20.508Z,26.30
2023-05-18T10:52:54.771Z,26.90
2023-05-18T10:55:29.346Z,26.48
2023-05-18T10:58:10.569Z,26.20
2023-05-18T11:00:45.892Z,26.00
2023-05-18T11:03:20.878Z,25.28
2023-05-18T11:06:10.689Z,24.80
2023-05-18T11:08:54.152Z,24.84
2023-05-18T11:11:30.353Z,25.16
2023-05-18T11:14:06.750Z,25.20
2023-05-18T11:16:43.372Z,25.86
2023-05-18T11:19:16.592Z,26.86
2023-05-18T11:21:56.981Z,27.00
2023-05-18T11:24:35.771Z,26.62
2023-05-18T11:27:19.761Z,27.10
2023-05-18T11:30:03.809Z,27.32
2023-05-18T11:32:41.366Z,26.90
2023-05-18T11:35:25.667Z,26.94
2023-05-18T11:38:08.033Z,27.12
2023-05-18T11:40:51.666Z,27.30
2023-05-18T11:43:26.793Z,27.36
2023-05-18T11:46:01.052Z,28.32
2023-05-18T11:48:34.631Z,29.20
2023-05-18T11:51:10.316Z,30.12
2023-05-18T11:53:43.657Z,30.80
2023-05-18T11:56:17.173Z,30.20
2023-05-18T11:59:10.169Z,29.80
2023-05-18T12:01:44.398Z,29.90
2023-05-18T12:04:18.029Z,30.10
2023-05-18T12:06:52.065Z,30.94
2023-05-18T12:09:25.513Z,31.50
2023-05-18T12:11:59.687Z,32.00
2023-05-18T12:14:35.368Z,32.50
2023-05-18T12:17:10.832Z,32.10
2023-05-18T12:19:49.314Z,32.00
2023-05-18T12:22:22.379Z,31.76
2023-05-18T12:24:56.113Z,31.68
2023-05-18T12:27:29.484Z,32.20
2023-05-18T12:30:02.522Z,32.80
2023-05-18T12:32:35.674Z,33.14
2023-05-18T12:35:10.173Z,32.80
2023-05-18T12:37:48.113Z,32.12
2023-05-18T12:40:24.023Z,32.44
2023-05-18T12:42:59.875Z,32.50
2023-05-18T12:45:35.109Z,32.06
2023-05-18T12:48:13.797Z,32.02
2023-05-18T12:50:52.862Z,32.40
2023-05-18T12:53:26.155Z,32.40
2023-05-18T12:56:04.468Z,32.60
2023-05-18T12:58:37.613Z,32.78
2023-05-18T13:01:13.952Z,32.90
2023-05-18T13:03:47.183Z,32.70
2023-05-18T13:06:21.363Z,33.08
2023-05-18T13:08:56.960Z,33.30
2023-05-18T13:11:30.455Z,33.34
2023-05-18T13:14:05.488Z,33.24
2023-05-18T13:16:41.454Z,32.88
2023-05-18T13:19:20.603Z,32.76
2023-05-18T13:22:00.295Z,33.10
2023-05-18T13:24:34.212Z,32.76
2023-05-18T13:27:07.632Z,32.90
2023-05-18T13:29:41.268Z,33.44
2023-05-18T13:32:14.215Z,33.90
2023-05-18T13:34:47.443Z,34.26
2023-05-18T13:37:21.459Z,34.40
2023-05-18T13:39:54.651Z,34.06
2023-05-18T13:42:27.648Z,33.88
2023-05-18T13:45:00.729Z,34.16
2023-05-18T13:47:33.911Z,34.78
2023-05-18T13:50:07.903Z,34.64
2023-05-18T13:52:41.156Z,34.14
2023-05-18T13:55:14.677Z,32.04
2023-05-18T13:57:48.043Z,30.62
2023-05-18T14:00:22.504Z,30.52
2023-05-18T14:02:55.610Z,31.32
2023-05-18T14:05:28.795Z,32.00
2023-05-18T14:08:01.784Z,30.92
2023-05-18T14:10:35.345Z,29.04
2023-05-18T14:13:08.765Z,28.46
2023-05-18T14:15:41.893Z,29.00
2023-05-18T14:18:15.007Z,29.16
2023-05-18T14:20:48.997Z,29.88
2023-05-18T14:23:22.035Z,29.86
2023-05-18T14:25:55.056Z,30.14
2023-05-18T14:28:28.166Z,30.70
2023-05-18T14:31:01.570Z,30.74
2023-05-18T14:33:34.990Z,29.58
2023-05-18T14:36:08.715Z,28.46
2023-05-18T14:38:43.575Z,27.14
2023-05-18T14:41:16.756Z,27.08
2023-05-18T14:43:51.450Z,28.04
2023-05-18T14:46:24.647Z,28.98
2023-05-18T14:48:57.937Z,29.40
2023-05-18T14:51:31.421Z,29.94
2023-05-18T14:54:04.638Z,30.60
2023-05-18T14:56:37.938Z,30.40
2023-05-18T14:59:11.049Z,30.30
2023-05-18T15:01:44.073Z,29.94
2023-05-18T15:04:17.693Z,28.48
2023-05-18T15:06:51.219Z,27.24
2023-05-18T15:09:26.702Z,26.50
2023-05-18T15:12:00.194Z,26.84
2023-05-18T15:14:33.503Z,27.44
2023-05-18T15:17:07.517Z,28.20
2023-05-18T15:19:40.793Z,28.10
2023-05-18T15:22:13.860Z,27.72
2023-05-18T15:24:46.844Z,26.86
2023-05-18T15:27:20.709Z,26.00
2023-05-18T15:29:53.751Z,25.10
2023-05-18T15:32:28.434Z,25.30
2023-05-18T15:35:03.879Z,25.72
2023-05-18T15:37:36.955Z,25.86
2023-05-18T15:40:12.243Z,24.96
2023-05-18T15:42:45.432Z,24.16
2023-05-18T15:45:18.627Z,23.58
2023-05-18T15:47:51.915Z,23.10
2023-05-18T15:50:25.486Z,22.56
2023-05-18T15:52:58.753Z,23.48
2023-05-18T15:55:31.790Z,24.82
2023-05-18T15:58:04.813Z,26.06
2023-05-18T16:00:37.756Z,27.06
2023-05-18T16:03:11.258Z,27.52
2023-05-18T16:05:45.532Z,27.42
2023-05-18T16:08:18.652Z,27.70
2023-05-18T16:10:51.676Z,27.20
2023-05-18T16:13:27.066Z,26.16
2023-05-18T16:16:00.128Z,25.58
2023-05-18T16:18:33.206Z,24.30
2023-05-18T16:21:06.548Z,23.20
2023-05-18T16:23:39.588Z,22.32
2023-05-18T16:26:12.598Z,21.72
2023-05-18T16:28:45.652Z,21.22
2023-05-18T16:31:18.619Z,20.90
2023-05-18T16:33:52.032Z,20.70
2023-05-18T16:36:26.355Z,20.34
2023-05-18T16:38:59.412Z,20.00
2023-05-18T16:41:32.656Z,19.90
2023-05-18T16:44:06.054Z,19.80
2023-05-18T16:46:39.226Z,19.60
2023-05-18T16:49:12.247Z,19.22
2023-05-18T16:51:45.430Z,18.90
2023-05-18T16:54:18.573Z,18.70
2023-05-18T16:56:52.163Z,18.60
2023-05-18T16:59:25.255Z,18.52
2023-05-18T17:01:58.513Z,18.40
2023-05-18T17:04:31.891Z,18.30
2023-05-18T17:07:06.909Z,18.20
2023-05-18T17:09:42.857Z,18.10
2023-05-18T17:12:16.213Z,18.10
2023-05-18T17:14:51.421Z,18.00
2023-05-18T17:17:25.812Z,17.90
2023-05-18T17:19:58.962Z,17.80
2023-05-18T17:22:32.351Z,17.70
2023-05-18T17:25:05.778Z,17.60
2023-05-18T17:27:39.083Z,17.50
2023-05-18T17:30:13.834Z,17.40
2023-05-18T17:32:50.640Z,17.20
2023-05-18T17:35:23.816Z,17.10
2023-05-18T17:37:57.378Z,17.00
2023-05-18T17:40:30.824Z,16.80
2023-05-18T17:43:03.992Z,16.70
2023-05-18T17:45:37.319Z,16.64
2023-05-18T17:48:11.457Z,16.70
2023-05-18T17:50:45.668Z,16.70
2023-05-18T17:53:18.793Z,16.70
2023-05-18T17:55:51.982Z,16.70
2023-05-18T17:58:25.033Z,16.70
2023-05-18T18:00:58.220Z,16.60
2023-05-18T18:03:32.700Z,16.50
2023-05-18T18:06:06.166Z,16.30
2023-05-18T18:08:39.136Z,16.10
2023-05-18T18:11:12.253Z,16.00
2023-05-18T18:13:45.662Z,15.90
2023-05-18T18:16:19.468Z,15.90
2023-05-18T18:18:52.914Z,15.90
2023-05-18T18:21:26.227Z,15.90
2023-05-18T18:23:59.250Z,15.90
2023-05-18T18:26:32.479Z,15.80
2023-05-18T18:29:05.882Z,15.70
2023-05-18T18:31:38.961Z,15.60
2023-05-18T18:34:12.460Z,15.40
2023-05-18T18:36:47.972Z,15.30
2023-05-18T18:39:22.278Z,15.20
2023-05-18T18:41:55.414Z,15.10
2023-05-18T18:44:28.435Z,15.00
2023-05-18T18:47:01.527Z,14.90
2023-05-18T18:49:34.679Z,14.80
2023-05-18T18:52:08.503Z,14.70
2023-05-18T18:54:41.578Z,14.60
2023-05-18T18:57:14.583Z,14.50
2023-05-18T18:59:47.910Z,14.40
2023-05-18T19:02:21.494Z,14.30
2023-05-18T19:04:54.571Z,14.20
2023-05-18T19:07:28.660Z,14.10
2023-05-18T19:10:01.762Z,14.10
2023-05-18T19:12:34.942Z,14.00
2023-05-18T19:15:10.247Z,13.90
2023-05-18T19:17:46.016Z,13.80
2023-05-18T19:20:19.305Z,13.76
2023-05-18T19:22:53.664Z,13.70
2023-05-18T19:25:30.218Z,13.60
2023-05-18T19:28:03.765Z,13.60
2023-05-18T19:30:36.938Z,13.50
2023-05-18T19:33:10.118Z,13.50
2023-05-18T19:35:43.313Z,13.40
2023-05-18T19:38:16.552Z,13.40
2023-05-18T19:40:49.736Z,13.30
2023-05-18T19:43:22.845Z,13.30
2023-05-18T19:45:56.030Z,13.22
2023-05-18T19:48:31.322Z,13.20
2023-05-18T19:51:06.034Z,13.20
2023-05-18T19:53:39.160Z,13.10
2023-05-18T19:56:12.561Z,13.10
2023-05-18T19:58:45.731Z,13.10
2023-05-18T20:01:19.101Z,13.06
2023-05-18T20:03:52.552Z,13.00
2023-05-18T20:06:25.940Z,13.00
2023-05-18T20:08:59.032Z,12.98
2023-05-18T20:11:32.147Z,12.90
2023-05-18T20:14:05.154Z,12.90
2023-05-18T20:16:40.912Z,12.82
2023-05-18T20:19:14.220Z,12.80
2023-05-18T20:21:48.909Z,12.80
2023-05-18T20:24:22.059Z,12.70
2023-05-18T20:26:55.415Z,12.70
2023-05-18T20:29:28.539Z,12.60
2023-05-18T20:32:01.949Z,12.50
2023-05-18T20:34:37.550Z,12.50
2023-05-18T20:37:11.208Z,12.40
2023-05-18T20:39:51.008Z,12.40
2023-05-18T20:42:25.295Z,12.40
2023-05-18T20:44:59.263Z,12.30
2023-05-18T20:47:32.525Z,12.30
2023-05-18T20:50:08.067Z,12.34
2023-05-18T20:52:41.258Z,12.30
2023-05-18T20:55:15.319Z,12.30
2023-05-18T20:57:50.245Z,12.30
2023-05-18T21:00:23.662Z,12.30
2023-05-18T21:02:57.095Z,12.30
2023-05-18T21:05:30.121Z,12.30
2023-05-18T21:08:03.580Z,12.30
2023-05-18T21:10:36.719Z,12.30
2023-05-18T21:13:10.008Z,12.30
2023-05-18T21:15:43.054Z,12.30
2023-05-18T21:18:17.141Z,12.26
2023-05-18T21:20:50.356Z,12.20
2023-05-18T21:23:23.690Z,12.20
2023-05-18T21:25:57.370Z,12.20
2023-05-18T21:28:30.403Z,12.20
2023-05-18T21:31:04.390Z,12.20
2023-05-18T21:33:37.606Z,12.20
2023-05-18T21:36:11.264Z,12.20
2023-05-18T21:38:44.325Z,12.20
2023-05-18T21:41:17.465Z,12.14
2023-05-18T21:43:50.610Z,12.10
2023-05-18T21:46:23.882Z,12.10
2023-05-18T21:48:56.862Z,12.10
2023-05-18T21:51:31.463Z,12.10
2023-05-18T21:54:05.330Z,12.10
2023-05-18T21:56:38.562Z,12.10
2023-05-18T21:59:11.674Z,12.08
2023-05-18T22:01:44.670Z,12.06
2023-05-18T22:04:18.248Z,12.04
2023-05-18T22:06:53.551Z,12.00
2023-05-18T22:09:27.170Z,12.00
2023-05-18T22:12:01.387Z,12.00
2023-05-18T22:14:34.560Z,12.00
2023-05-18T22:17:08.138Z,12.00
2023-05-18T22:19:42.304Z,12.00
2023-05-18T22:22:29.264Z,12.00
2023-05-18T22:25:03.699Z,12.00
2023-05-18T22:27:38.957Z,12.00
2023-05-18T22:30:15.417Z,11.90
2023-05-18T22:32:48.627Z,11.90
2023-05-18T22:35:21.996Z,11.90
2023-05-18T22:37:55.138Z,11.90
2023-05-18T22:40:28.644Z,11.80
2023-05-18T22:43:02.102Z,11.80
2023-05-18T22:45:35.492Z,11.80
2023-05-18T22:48:09.252Z,11.80
2023-05-18T22:50:42.473Z,11.78
2023-05-18T22:53:15.706Z,11.76
2023-05-18T22:55:48.890Z,11.78
2023-05-18T22:58:21.922Z,11.80
2023-05-18T23:00:55.032Z,11.80
2023-05-18T23:03:28.070Z,11.80
2023-05-18T23:06:03.327Z,11.80
2023-05-18T23:08:37.081Z,11.80
2023-05-18T23:11:10.502Z,11.80
2023-05-18T23:13:43.450Z,11.80
2023-05-18T23:16:16.579Z,11.80
2023-05-18T23:18:53.757Z,11.72
2023-05-18T23:21:26.983Z,11.70
2023-05-18T23:24:00.116Z,11.70
2023-05-18T23:26:33.327Z,11.70
2023-05-18T23:29:06.297Z,11.70
2023-05-18T23:31:39.538Z,11.62
2023-05-18T23:34:13.974Z,11.60
2023-05-18T23:36:53.495Z,11.60
2023-05-18T23:39:28.105Z,11.60
2023-05-18T23:42:02.420Z,11.50
2023-05-18T23:44:36.558Z,11.50
2023-05-18T23:47:11.434Z,11.40
2023-05-18T23:49:45.667Z,11.40
2023-05-18T23:52:21.888Z,11.40
2023-05-18T23:54:56.338Z,11.30
2023-05-18T23:57:31.677Z,11.30
